Time;durP1;ratioP1;P1;durP2;ratioP2;P2;SDS_P1;SDS_P2;PMS_P1;PMS_P2;Temp;Humidity;BMP_temperature;BMP_pressure;BME280_temperature;BME280_humidity;BME280_pressure;Samples;Min_cycle;Max_cycle;Signal;HPM_P1;HPM_P2
2022/09/18 00:00:28;;;;;;;5.10;2.53;;;;;;;-141.28;100.00;48232.66;5072779;28;20211;-76
2022/09/18 00:02:55;;;;;;;8.03;2.57;;;;;;;-141.28;100.00;48230.69;5072844;28;20198;-76
2022/09/18 00:05:28;;;;;;;7.33;2.63;;;;;;;-141.28;100.00;48266.00;5055190;28;20283;-76
2022/09/18 00:07:55;;;;;;;5.10;2.70;;;;;;;-141.28;100.00;48279.72;5072435;28;20285;-76
2022/09/18 00:10:22;;;;;;;6.27;2.50;;;;;;;-141.28;100.00;48267.97;5072445;28;20192;-75
2022/09/18 00:12:49;;;;;;;6.00;2.63;;;;;;;-141.28;100.00;48277.75;5092024;28;20214;-75
2022/09/18 00:15:17;;;;;;;8.20;2.43;;;;;;;-141.28;100.00;48285.59;5092781;28;20249;-76
2022/09/18 00:17:45;;;;;;;6.23;2.37;;;;;;;-141.28;100.00;48309.16;5079240;28;20222;-75
2022/09/18 00:20:13;;;;;;;6.83;2.17;;;;;;;-141.28;100.00;48328.75;5093881;28;20199;-75
2022/09/18 00:22:43;;;;;;;5.13;1.90;;;;;;;-141.28;100.00;48364.06;5086402;28;20207;-75
2022/09/18 00:25:10;;;;;;;2.57;1.70;;;;;;;-141.28;100.00;48371.91;5074105;28;20196;-75
2022/09/18 00:27:37;;;;;;;1.90;1.70;;;;;;;-141.28;100.00;48383.69;5092875;28;20211;-75
2022/09/18 00:30:05;;;;;;;6.03;1.97;;;;;;;-141.28;100.00;48403.31;5078546;28;20682;-74
2022/09/18 00:32:32;;;;;;;6.03;1.87;;;;;;;-141.28;100.00;48413.13;5072558;28;20204;-75
2022/09/18 00:35:00;;;;;;;10.13;1.53;;;;;;;-141.28;100.00;48403.31;5087947;28;20287;-76
2022/09/18 00:37:27;;;;;;;1.87;1.50;;;;;;;-141.28;100.00;48395.47;5085232;28;20226;-76
2022/09/18 00:39:57;;;;;;;2.17;1.30;;;;;;;-141.28;100.00;48415.06;5072828;28;20211;-76
2022/09/18 00:42:24;;;;;;;1.30;1.20;;;;;;;-141.28;100.00;48411.16;5081095;28;20620;-76
2022/09/18 00:44:52;;;;;;;2.90;1.40;;;;;;;-141.28;100.00;48405.28;5077393;28;20200;-75
2022/09/18 00:47:27;;;;;;;1.63;1.10;;;;;;;-141.28;100.00;48430.78;5072386;28;20227;-75
2022/09/18 00:50:00;;;;;;;8.60;1.40;;;;;;;-141.28;100.00;48442.53;5075601;28;20202;-75
2022/09/18 00:52:36;;;;;;;1.80;1.30;;;;;;;-141.28;100.00;48454.31;5079923;28;20222;-77
2022/09/18 00:55:09;;;;;;;6.13;1.23;;;;;;;-141.28;100.00;48477.84;5091161;28;20198;-75
2022/09/18 00:57:40;;;;;;;1.40;1.20;;;;;;;-141.28;100.00;48470.00;5071250;28;20227;-75
2022/09/18 01:00:13;;;;;;;0.87;0.87;;;;;;;-141.28;100.00;48470.00;5087183;28;20199;-75
2022/09/18 01:02:41;;;;;;;0.80;0.80;;;;;;;-141.28;100.00;48456.28;5091632;28;20611;-76
2022/09/18 01:05:10;;;;;;;2.70;0.70;;;;;;;-141.28;100.00;48497.47;5090705;28;20331;-76
2022/09/18 01:07:53;;;;;;;1.20;0.70;;;;;;;-141.28;100.00;48542.59;5104308;28;20223;-75
2022/09/18 01:10:32;;;;;;;0.67;0.67;;;;;;;-141.28;100.00;48591.63;5091545;28;20206;-74
2022/09/18 01:13:06;;;;;;;1.33;0.70;;;;;;;-141.28;100.00;48579.88;5087738;28;20192;-75
2022/09/18 01:15:43;;;;;;;0.43;0.43;;;;;;;-141.28;100.00;48583.78;5091675;28;20204;-75
2022/09/18 01:18:21;;;;;;;2.73;0.73;;;;;;;-141.28;100.00;48575.94;5072120;28;20223;-76
2022/09/18 01:21:18;;;;;;;0.60;0.60;;;;;;;-141.28;100.00;48611.25;5087877;28;20199;-76
2022/09/18 01:24:23;;;;;;;0.70;0.60;;;;;;;-141.28;100.00;48626.94;5091848;28;20199;-75
2022/09/18 01:26:57;;;;;;;0.50;0.50;;;;;;;-141.28;100.00;48577.91;5091475;28;20202;-76
2022/09/18 01:29:43;;;;;;;0.63;0.57;;;;;;;-141.28;100.00;48519.06;5080038;28;20617;-76
2022/09/18 01:32:20;;;;;;;0.27;0.17;;;;;;;-141.28;100.00;48481.78;5091315;28;20200;-75
2022/09/18 01:34:55;;;;;;;2.50;0.50;;;;;;;-141.28;100.00;48460.19;5091160;28;20199;-76
2022/09/18 01:37:28;;;;;;;0.33;0.33;;;;;;;-141.28;100.00;48471.97;5091350;28;20250;-75
2022/09/18 01:40:00;;;;;;;0.47;0.20;;;;;;;-141.28;100.00;48477.84;5071702;28;20279;-74
2022/09/18 01:42:31;;;;;;;2.20;0.40;;;;;;;-141.28;100.00;48489.63;5071257;28;20650;-75
2022/09/18 01:45:05;;;;;;;1.60;0.27;;;;;;;-141.28;100.00;48564.16;5084422;28;20321;-76
2022/09/18 01:47:38;;;;;;;0.10;0.10;;;;;;;-141.28;100.00;48521.00;5080792;28;20227;-76
2022/09/18 01:50:09;;;;;;;0.20;0.20;;;;;;;-141.28;100.00;48532.78;5099960;28;20199;-75
2022/09/18 01:52:39;;;;;;;3.83;0.50;;;;;;;-141.28;100.00;48534.75;5092798;28;20238;-77
2022/09/18 01:55:14;;;;;;;0.43;0.43;;;;;;;-141.28;100.00;48556.31;5081343;28;20631;-75
2022/09/18 01:57:47;;;;;;;0.87;0.30;;;;;;;-141.28;100.00;48548.47;5094299;28;20215;-75
2022/09/18 02:00:16;;;;;;;3.30;0.20;;;;;;;-141.28;100.00;48570.06;5094862;28;20192;-75
2022/09/18 02:02:50;;;;;;;2.93;0.47;;;;;;;-141.28;100.00;48564.16;5088727;28;20203;-76
2022/09/18 02:05:23;;;;;;;4.00;0.60;;;;;;;-141.28;100.00;48532.78;5088215;28;20739;-76
2022/09/18 02:07:58;;;;;;;2.83;0.40;;;;;;;-141.28;100.00;48564.16;5102572;28;20233;-74
2022/09/18 02:10:29;;;;;;;0.83;0.30;;;;;;;-141.28;100.00;48542.59;5087116;28;20586;-76
2022/09/18 02:13:01;;;;;;;0.10;0.10;;;;;;;-141.28;100.00;48548.47;5104637;28;20575;-77
2022/09/18 02:15:38;;;;;;;0.30;0.30;;;;;;;-141.28;100.00;48540.63;5076502;28;20200;-76
2022/09/18 02:18:10;;;;;;;1.70;0.40;;;;;;;-141.28;100.00;48540.63;5074259;28;20219;-76
2022/09/18 02:20:41;;;;;;;2.77;0.60;;;;;;;-141.28;100.00;48540.63;5101088;28;20198;-77
2022/09/18 02:23:10;;;;;;;0.40;0.40;;;;;;;-141.28;100.00;48560.25;5100611;28;20546;-74
2022/09/18 02:25:41;;;;;;;4.40;0.70;;;;;;;-141.28;100.00;48564.16;5106123;28;20509;-76
2022/09/18 02:28:10;;;;;;;1.73;0.40;;;;;;;-141.28;100.00;48581.81;5105662;28;20450;-78
2022/09/18 02:30:39;;;;;;;0.33;0.33;;;;;;;-141.28;100.00;48595.56;5127538;28;20369;-76
2022/09/18 02:33:24;;;;;;;3.60;0.63;;;;;;;-141.28;100.00;48632.84;5099067;28;20257;-75
2022/09/18 02:36:11;;;;;;;1.13;0.80;;;;;;;-141.28;100.00;48646.56;5100976;28;20495;-76
2022/09/18 02:38:45;;;;;;;0.83;0.60;;;;;;;-141.28;100.00;48666.19;5085405;28;20488;-75
2022/09/18 02:41:26;;;;;;;0.77;0.77;;;;;;;-141.28;100.00;48668.16;5111533;28;20198;-75
2022/09/18 02:43:58;;;;;;;1.00;1.00;;;;;;;-141.28;100.00;48693.66;5100598;28;20441;-77
2022/09/18 02:46:37;;;;;;;0.67;0.67;;;;;;;-141.28;100.00;48697.56;5109051;28;20448;-75
2022/09/18 02:49:13;;;;;;;0.87;0.67;;;;;;;-141.28;100.00;48693.66;5111250;28;20443;-76
2022/09/18 02:51:47;;;;;;;0.70;0.70;;;;;;;-141.28;100.00;48693.66;5082276;28;20438;-74
2022/09/18 02:54:24;;;;;;;0.60;0.60;;;;;;;-141.28;100.00;48701.50;5093549;28;20500;-75
2022/09/18 02:56:59;;;;;;;2.13;0.80;;;;;;;-141.28;100.00;48695.59;5112756;28;20448;-76
2022/09/18 02:59:31;;;;;;;1.00;0.93;;;;;;;-141.28;100.00;48654.41;5109388;28;20456;-76
2022/09/18 03:02:00;;;;;;;0.80;0.80;;;;;;;-141.28;100.00;48701.50;5111374;28;20551;-76
2022/09/18 03:04:29;;;;;;;1.00;1.00;;;;;;;-141.28;100.00;48744.66;5105382;28;20529;-77
2022/09/18 03:06:56;;;;;;;1.60;0.90;;;;;;;-141.28;100.00;48760.34;5106235;28;20472;-75
2022/09/18 03:09:24;;;;;;;2.60;0.80;;;;;;;-141.28;100.00;48772.13;5086487;28;20438;-75
2022/09/18 03:11:52;;;;;;;2.33;1.03;;;;;;;-141.28;100.00;48827.06;5088507;28;20437;-76
2022/09/18 03:14:19;;;;;;;1.60;1.30;;;;;;;-141.28;100.00;48870.22;5104898;28;20504;-76
2022/09/18 03:16:48;;;;;;;1.33;1.23;;;;;;;-141.28;100.00;48913.38;5108398;28;20961;-75
2022/09/18 03:19:18;;;;;;;1.20;1.10;;;;;;;-141.28;100.00;48956.53;5114719;28;20211;-76
2022/09/18 03:21:46;;;;;;;2.50;1.20;;;;;;;-141.28;100.00;48999.72;5077612;28;20211;-74
2022/09/18 03:24:13;;;;;;;1.20;1.10;;;;;;;-141.28;100.00;49038.94;5073588;28;20971;-75
2022/09/18 03:26:40;;;;;;;1.10;1.00;;;;;;;-141.28;100.00;49066.41;5089135;28;20475;-77
2022/09/18 03:29:08;;;;;;;1.30;1.20;;;;;;;-141.28;100.00;49093.88;5084061;28;20203;-76
2022/09/18 03:31:36;;;;;;;2.60;1.40;;;;;;;-141.28;100.00;49127.25;5090078;28;20496;-75
2022/09/18 03:34:04;;;;;;;1.30;1.20;;;;;;;-141.28;100.00;49156.66;5093479;28;20441;-76
2022/09/18 03:36:38;;;;;;;1.23;1.10;;;;;;;-141.28;100.00;49190.03;5089490;28;20453;-75
2022/09/18 03:39:06;;;;;;;1.17;1.13;;;;;;;-141.28;100.00;49201.81;5085120;28;20508;-76
2022/09/18 03:41:33;;;;;;;1.07;1.07;;;;;;;-141.28;100.00;49221.41;5076029;28;20885;-74
2022/09/18 03:44:00;;;;;;;1.30;1.20;;;;;;;-141.28;100.00;49235.16;5073864;28;20443;-75
2022/09/18 03:46:28;;;;;;;1.37;1.27;;;;;;;-141.28;100.00;49227.31;5074544;28;20447;-74
2022/09/18 03:48:55;;;;;;;1.47;1.30;;;;;;;-141.28;100.00;49246.94;5073418;28;20215;-74
2022/09/18 03:51:23;;;;;;;1.37;1.27;;;;;;;-141.28;100.00;49246.94;5073336;28;20843;-76
2022/09/18 03:53:51;;;;;;;1.50;1.40;;;;;;;-141.28;100.00;49262.63;5086719;28;21057;-75
2022/09/18 03:56:18;;;;;;;1.73;1.53;;;;;;;-141.28;100.00;49262.63;5080283;28;20966;-75
2022/09/18 03:58:46;;;;;;;1.50;1.40;;;;;;;-141.28;100.00;49268.50;5081221;28;20491;-74
2022/09/18 04:01:13;;;;;;;1.77;1.67;;;;;;;-141.28;100.00;49286.16;5073106;28;20443;-75
2022/09/18 04:03:40;;;;;;;1.70;1.60;;;;;;;-141.28;100.00;49294.03;5074660;28;20221;-75
2022/09/18 04:06:11;;;;;;;3.97;1.80;;;;;;;-141.28;100.00;49280.28;5072500;28;20435;-75
2022/09/18 04:08:39;;;;;;;1.77;1.67;;;;;;;-141.28;100.00;49309.72;5085646;28;20535;-75
2022/09/18 04:11:08;;;;;;;2.10;1.67;;;;;;;-141.28;100.00;49319.53;5072377;28;20196;-76
2022/09/18 04:13:35;;;;;;;2.10;1.90;;;;;;;-141.28;100.00;49274.41;5074065;28;20472;-76
2022/09/18 04:16:02;;;;;;;2.07;1.87;;;;;;;-141.28;100.00;49325.41;5083641;28;20449;-75
2022/09/18 04:18:29;;;;;;;2.20;2.00;;;;;;;-141.28;100.00;49341.13;5074358;28;20998;-77
2022/09/18 04:20:56;;;;;;;1.80;1.70;;;;;;;-141.28;100.00;49313.66;5082894;28;20443;-75
2022/09/18 04:23:24;;;;;;;1.97;1.87;;;;;;;-141.28;100.00;49335.22;5088624;28;20449;-75
2022/09/18 04:25:53;;;;;;;2.03;1.83;;;;;;;-141.28;100.00;49329.34;5083254;28;20204;-77
2022/09/18 04:28:24;;;;;;;2.57;2.37;;;;;;;-141.28;100.00;49339.16;5085905;28;20450;-75
2022/09/18 04:30:53;;;;;;;3.87;2.00;;;;;;;-141.28;100.00;49331.31;5071946;28;20557;-74
2022/09/18 04:33:21;;;;;;;2.27;2.07;;;;;;;-141.28;100.00;49305.78;5072139;28;20447;-75
2022/09/18 04:35:48;;;;;;;3.90;2.10;;;;;;;-141.28;100.00;49313.66;5083739;28;20203;-76
2022/09/18 04:38:17;;;;;;;2.53;2.33;;;;;;;-141.28;100.00;49319.53;5073631;28;20486;-76
2022/09/18 04:40:44;;;;;;;2.87;2.40;;;;;;;-141.28;100.00;49309.72;5083037;28;20438;-75
2022/09/18 04:43:11;;;;;;;3.43;2.40;;;;;;;-141.28;100.00;49264.59;5091862;28;20994;-76
2022/09/18 04:45:40;;;;;;;2.90;2.60;;;;;;;-141.28;100.00;49258.69;5096711;28;20941;-76
2022/09/18 04:48:07;;;;;;;2.60;2.37;;;;;;;-141.28;100.00;49239.09;5084731;28;20456;-76
2022/09/18 04:50:36;;;;;;;3.73;2.90;;;;;;;-141.28;100.00;49142.94;5071990;28;20446;-77
2022/09/18 04:53:04;;;;;;;4.47;3.00;;;;;;;-141.28;100.00;49235.16;5085815;28;20928;-74
2022/09/18 04:55:31;;;;;;;3.17;2.80;;;;;;;-141.28;100.00;49235.16;5071824;28;20970;-75
2022/09/18 04:57:58;;;;;;;3.30;2.73;;;;;;;-141.28;100.00;49223.38;5073798;28;20502;-76
2022/09/18 05:00:27;;;;;;;3.87;3.20;;;;;;;-141.28;100.00;49235.16;5092074;28;20944;-74
2022/09/18 05:02:57;;;;;;;3.47;3.17;;;;;;;-141.28;100.00;49227.31;5077815;28;20443;-75
2022/09/18 05:05:27;;;;;;;3.37;2.90;;;;;;;-141.28;100.00;49215.53;5088278;28;20437;-76
2022/09/18 05:07:55;;;;;;;4.60;3.10;;;;;;;-141.28;100.00;49219.47;5102350;28;20498;-75
2022/09/18 05:10:22;;;;;;;2.57;2.37;;;;;;;-141.28;100.00;49229.28;5105471;28;20501;-76
2022/09/18 05:12:49;;;;;;;2.93;2.40;;;;;;;-141.28;100.00;49223.38;5111306;28;20444;-77
2022/09/18 05:15:16;;;;;;;3.43;3.13;;;;;;;-141.28;100.00;49223.38;5106845;28;20442;-75
2022/09/18 05:17:43;;;;;;;3.37;2.47;;;;;;;-141.28;100.00;49252.81;5091196;28;20560;-74
2022/09/18 05:20:14;;;;;;;3.80;2.33;;;;;;;-141.28;100.00;49262.63;5089873;28;20450;-76
2022/09/18 05:22:45;;;;;;;3.00;2.70;;;;;;;-141.28;100.00;49264.59;5090889;28;20445;-75
2022/09/18 05:25:15;;;;;;;3.13;2.80;;;;;;;-141.28;100.00;49270.47;5096492;28;20446;-77
2022/09/18 05:27:42;;;;;;;3.03;2.73;;;;;;;-141.28;100.00;49301.88;5087334;28;20441;-75
2022/09/18 05:30:16;;;;;;;2.87;2.47;;;;;;;-141.28;100.00;49274.41;5098525;28;20191;-75
2022/09/18 05:32:44;;;;;;;3.27;2.80;;;;;;;-141.28;100.00;49333.25;5104748;28;20440;-75
2022/09/18 05:35:13;;;;;;;2.80;2.50;;;;;;;-141.28;100.00;49323.44;5108806;28;20450;-78
2022/09/18 05:37:43;;;;;;;3.00;2.17;;;;;;;-141.28;100.00;49350.94;5076966;28;20706;-74
2022/09/18 05:40:12;;;;;;;3.10;2.70;;;;;;;-141.28;100.00;49350.94;5095592;28;20456;-75
2022/09/18 05:42:45;;;;;;;2.97;2.10;;;;;;;-141.28;100.00;49372.50;5077268;28;20445;-75
2022/09/18 05:45:12;;;;;;;2.40;2.20;;;;;;;-141.28;100.00;49368.59;5088667;28;20191;-75
2022/09/18 05:47:40;;;;;;;2.47;2.27;;;;;;;-141.28;100.00;49372.50;5075333;28;20224;-75
2022/09/18 05:50:09;;;;;;;1.57;1.47;;;;;;;-141.28;100.00;49378.41;5075374;28;20971;-74
2022/09/18 05:52:37;;;;;;;2.37;2.10;;;;;;;-141.28;100.00;49362.69;5075245;28;20525;-75
2022/09/18 05:55:04;;;;;;;2.67;2.40;;;;;;;-141.28;100.00;49372.50;5089702;28;20200;-74
2022/09/18 05:57:31;;;;;;;4.63;2.00;;;;;;;-141.28;100.00;49378.41;5095160;28;20924;-77
2022/09/18 05:59:58;;;;;;;5.00;1.97;;;;;;;-141.28;100.00;49403.91;5083455;28;20875;-76
2022/09/18 06:02:27;;;;;;;2.20;1.90;;;;;;;-141.28;100.00;49409.78;5087512;28;20442;-75
2022/09/18 06:04:54;;;;;;;2.30;2.10;;;;;;;-141.28;100.00;49433.34;5085650;28;20437;-75
2022/09/18 06:07:21;;;;;;;3.03;1.60;;;;;;;-141.28;100.00;49429.41;5094657;28;20272;-76
2022/09/18 06:09:50;;;;;;;2.73;1.93;;;;;;;-141.28;100.00;49454.94;5094842;28;20441;-75
2022/09/18 06:12:18;;;;;;;3.17;1.60;;;;;;;-141.28;100.00;49464.72;5095924;28;20453;-76
2022/09/18 06:14:51;;;;;;;3.47;2.10;;;;;;;-141.28;100.00;49451.00;5096854;28;20451;-75
2022/09/18 06:17:19;;;;;;;2.03;1.80;;;;;;;-141.28;100.00;49456.88;5074269;28;20446;-76
2022/09/18 06:19:46;;;;;;;3.93;2.10;;;;;;;-141.28;100.00;49360.75;5074276;28;20478;-78
2022/09/18 06:22:15;;;;;;;2.80;2.20;;;;;;;-141.28;100.00;49451.00;5074721;28;20446;-76
2022/09/18 06:24:41;;;;;;;3.73;2.03;;;;;;;-141.28;100.00;49456.88;5087911;28;20215;-77
2022/09/18 06:27:11;;;;;;;2.10;1.90;;;;;;;-141.28;100.00;49431.38;5074708;28;20258;-75
2022/09/18 06:29:40;;;;;;;1.33;1.23;;;;;;;-141.28;100.00;49439.22;5087988;28;20248;-76
2022/09/18 06:32:09;;;;;;;2.47;1.73;;;;;;;-141.28;100.00;49396.06;5074145;28;20674;-74
2022/09/18 06:34:37;;;;;;;1.73;1.60;;;;;;;-141.28;100.00;49431.38;5088083;28;20514;-75
2022/09/18 06:37:05;;;;;;;1.80;1.70;;;;;;;-141.28;100.00;49392.13;5074233;28;20938;-75
2022/09/18 06:39:33;;;;;;;2.80;1.70;;;;;;;-141.28;100.00;49445.13;5092626;28;20328;-75
2022/09/18 06:42:01;;;;;;;2.13;1.80;;;;;;;-141.28;100.00;49484.34;5112740;28;20207;-77
2022/09/18 06:44:30;;;;;;;1.40;1.30;;;;;;;-141.28;100.00;49500.06;5099484;28;20230;-75
2022/09/18 06:46:57;;;;;;;1.70;1.33;;;;;;;-141.28;100.00;49529.50;5113507;28;20436;-75
2022/09/18 06:49:24;;;;;;;2.73;1.90;;;;;;;-141.28;100.00;49572.66;5108692;28;20549;-75
2022/09/18 06:51:54;;;;;;;1.20;1.10;;;;;;;-141.28;100.00;49537.34;5093333;28;20199;-76
2022/09/18 06:54:21;;;;;;;2.77;1.30;;;;;;;-141.28;100.00;49627.59;5092608;28;20307;-75
2022/09/18 06:56:51;;;;;;;1.37;1.27;;;;;;;-141.28;100.00;49641.34;5088100;28;20215;-76
2022/09/18 06:59:18;;;;;;;5.10;1.30;;;;;;;-141.28;100.00;49664.91;5086081;28;20481;-76
2022/09/18 07:01:50;;;;;;;1.97;1.57;;;;;;;-141.28;100.00;49660.97;5087650;28;20196;-77
2022/09/18 07:04:18;;;;;;;2.87;1.87;;;;;;;-141.28;100.00;49668.81;5079646;28;20191;-75
2022/09/18 07:06:47;;;;;;;1.17;1.10;;;;;;;-141.28;100.00;49621.72;5093550;28;20195;-78
2022/09/18 07:09:15;;;;;;;1.70;1.60;;;;;;;-141.28;100.00;49682.56;5081353;28;20208;-77
2022/09/18 07:11:42;;;;;;;1.33;1.23;;;;;;;-141.28;100.00;49710.03;5092668;28;20194;-76
2022/09/18 07:14:10;;;;;;;3.90;1.80;;;;;;;-141.28;100.00;49725.72;5105915;28;20199;-77
2022/09/18 07:16:38;;;;;;;2.17;1.30;;;;;;;-141.28;100.00;49796.38;5100109;28;20275;-74
2022/09/18 07:19:06;;;;;;;1.33;1.23;;;;;;;-141.28;100.00;49900.38;5086202;28;20645;-77
2022/09/18 07:21:37;;;;;;;1.90;1.40;;;;;;;-141.28;100.00;50039.72;5093481;28;20279;-77
2022/09/18 07:24:08;;;;;;;2.67;1.83;;;;;;;-141.28;100.00;50063.28;5080680;28;20203;-78
2022/09/18 07:26:35;;;;;;;2.93;1.70;;;;;;;-141.28;100.00;50104.50;5105116;28;20200;-76
2022/09/18 07:29:02;;;;;;;4.50;1.50;;;;;;;-141.28;100.00;50090.75;5092931;28;20249;-75
2022/09/18 07:31:29;;;;;;;1.80;1.50;;;;;;;-141.28;100.00;50169.28;5092139;28;20203;-75
2022/09/18 07:33:56;;;;;;;5.60;1.50;;;;;;;-141.28;100.00;50198.72;5084319;28;20196;-75
2022/09/18 07:36:26;;;;;;;6.30;1.90;;;;;;;-141.28;100.00;50387.13;5063952;28;20200;-74
2022/09/18 07:38:53;;;;;;;3.60;1.10;;;;;;;-141.28;100.00;50581.47;5087300;28;20281;-75
2022/09/18 07:41:23;;;;;;;1.47;1.20;;;;;;;-141.28;100.00;50813.09;5074047;28;20200;-73
2022/09/18 07:43:52;;;;;;;2.40;1.10;;;;;;;-141.28;100.00;51064.38;5073650;28;20200;-76
2022/09/18 07:46:19;;;;;;;1.37;1.27;;;;;;;-141.28;100.00;51237.13;5055474;28;20219;-76
2022/09/18 07:48:47;;;;;;;1.63;0.90;;;;;;;-141.28;100.00;51382.44;5055182;28;20217;-77
2022/09/18 07:51:17;;;;;;;1.30;1.20;;;;;;;-141.28;100.00;51537.53;5073770;28;20212;-75
2022/09/18 07:53:47;;;;;;;0.90;0.90;;;;;;;-141.28;100.00;51822.25;5072411;28;20196;-77
2022/09/18 07:56:18;;;;;;;1.50;1.30;;;;;;;-141.28;100.00;52012.72;5078353;28;20195;-77
2022/09/18 07:58:45;;;;;;;1.00;1.00;;;;;;;-141.28;100.00;52132.53;5092896;28;20226;-76
2022/09/18 08:01:13;;;;;;;1.03;0.93;;;;;;;-141.28;100.00;52285.72;5079406;28;20195;-76
2022/09/18 08:03:41;;;;;;;2.00;1.07;;;;;;;-141.28;100.00;52328.91;5092987;28;20203;-77
2022/09/18 08:06:09;;;;;;;2.27;1.03;;;;;;;-141.28;100.00;52470.31;5085365;28;20655;-77
2022/09/18 08:08:37;;;;;;;1.50;0.93;;;;;;;-141.28;100.00;52444.78;5074236;28;20236;-75
2022/09/18 08:11:05;;;;;;;6.63;1.20;;;;;;;-141.28;100.00;52525.31;5084296;28;20265;-76
2022/09/18 08:13:32;;;;;;;2.83;1.10;;;;;;;-141.28;100.00;52521.38;5099506;28;20203;-76
2022/09/18 08:16:00;;;;;;;2.20;1.20;;;;;;;-141.28;100.00;52576.38;5090040;28;20210;-74
2022/09/18 08:18:28;;;;;;;1.33;1.10;;;;;;;-141.28;100.00;52533.16;5083024;28;20667;-75
2022/09/18 08:20:56;;;;;;;1.63;1.20;;;;;;;-141.28;100.00;52564.59;5092275;28;20191;-76
2022/09/18 08:23:24;;;;;;;4.33;2.30;;;;;;;-141.28;100.00;52543.00;5094901;28;20194;-75
2022/09/18 08:25:52;;;;;;;1.43;1.33;;;;;;;-141.28;100.00;52556.75;5111951;28;20202;-76
2022/09/18 08:28:22;;;;;;;1.80;1.37;;;;;;;-141.28;100.00;52584.25;5081548;28;20199;-76
2022/09/18 08:30:49;;;;;;;3.47;1.43;;;;;;;-141.28;100.00;52562.63;5080800;28;20192;-74
2022/09/18 08:33:17;;;;;;;1.80;1.40;;;;;;;-141.28;100.00;52533.16;5071948;28;20199;-75
2022/09/18 08:35:45;;;;;;;8.97;1.80;;;;;;;-141.28;100.00;52548.88;5072247;28;20196;-75
2022/09/18 08:38:12;;;;;;;1.77;1.50;;;;;;;-141.28;100.00;52519.41;5076873;28;20215;-76
2022/09/18 08:41:15;;;;;;;1.33;1.23;;;;;;;-141.28;100.00;52489.97;5091891;28;20731;-76
2022/09/18 08:43:53;;;;;;;2.77;1.47;;;;;;;-141.28;100.00;52484.06;5074203;28;20196;-74
2022/09/18 08:46:26;;;;;;;1.30;1.20;;;;;;;-141.28;100.00;52438.91;5083057;28;20694;-75
2022/09/18 08:48:59;;;;;;;1.20;1.10;;;;;;;-141.28;100.00;52403.53;5075253;28;20234;-77
2022/09/18 08:51:33;;;;;;;4.20;1.23;;;;;;;-141.28;100.00;52356.41;5092083;28;20253;-75
2022/09/18 08:54:16;;;;;;;1.57;1.30;;;;;;;-141.28;100.00;52266.06;5073506;28;20227;-75
2022/09/18 08:56:44;;;;;;;1.40;1.30;;;;;;;-141.28;100.00;52234.66;5085138;28;20693;-75
2022/09/18 08:59:22;;;;;;;1.50;1.40;;;;;;;-141.28;100.00;52226.78;5094918;28;20227;-75
2022/09/18 09:02:02;;;;;;;1.80;1.30;;;;;;;-141.28;100.00;52321.06;5104855;28;20287;-74
2022/09/18 09:04:30;;;;;;;3.20;1.20;;;;;;;-141.28;100.00;52297.50;5069903;28;20204;-75
2022/09/18 09:07:08;;;;;;;3.10;1.30;;;;;;;-141.28;100.00;52356.41;5086159;28;20795;-77
2022/09/18 09:09:51;;;;;;;1.30;1.17;;;;;;;-141.28;100.00;52379.97;5108993;28;20202;-77
2022/09/18 09:12:33;;;;;;;3.23;1.00;;;;;;;-141.28;100.00;52360.34;5100996;28;20191;-76
2022/09/18 09:15:32;;;;;;;3.37;1.60;;;;;;;-141.28;100.00;52330.88;5092799;28;20219;-74
2022/09/18 09:18:17;;;;;;;1.90;1.37;;;;;;;-141.28;100.00;52352.47;5070002;28;20634;-75
2022/09/18 09:20:52;;;;;;;1.83;1.50;;;;;;;-141.28;100.00;52289.63;5089573;28;20227;-76
2022/09/18 09:23:27;;;;;;;1.57;0.90;;;;;;;-141.28;100.00;52340.69;5104598;28;20286;-76
2022/09/18 09:26:03;;;;;;;1.63;1.13;;;;;;;-141.28;100.00;52295.53;5090838;28;20238;-76
2022/09/18 09:28:36;;;;;;;0.77;0.77;;;;;;;-141.28;100.00;52301.41;5085040;28;20200;-75
2022/09/18 09:31:09;;;;;;;1.57;1.10;;;;;;;-141.28;100.00;52248.41;5072226;28;20636;-75
2022/09/18 09:33:42;;;;;;;3.80;1.23;;;;;;;-141.28;100.00;52297.50;5100482;28;20206;-75
2022/09/18 09:36:15;;;;;;;3.37;1.17;;;;;;;-141.28;100.00;52248.41;5113086;28;20579;-73
2022/09/18 09:38:48;;;;;;;2.20;1.10;;;;;;;-141.28;100.00;52317.13;5092173;28;20198;-75
2022/09/18 09:41:24;;;;;;;0.83;0.83;;;;;;;-141.28;100.00;52336.78;5090473;28;20210;-76
2022/09/18 09:44:03;;;;;;;1.23;1.10;;;;;;;-141.28;100.00;52340.69;5090256;28;20227;-74
2022/09/18 09:46:47;;;;;;;1.63;1.40;;;;;;;-141.28;100.00;52281.78;5087976;28;20195;-74
2022/09/18 09:49:20;;;;;;;2.10;1.30;;;;;;;-141.28;100.00;52317.13;5109417;28;20577;-75
2022/09/18 09:51:58;;;;;;;3.23;1.50;;;;;;;-141.28;100.00;52395.69;5110589;28;20218;-75
2022/09/18 09:54:25;;;;;;;1.80;1.60;;;;;;;-141.28;100.00;52383.91;5082008;28;20233;-75
2022/09/18 09:57:03;;;;;;;2.33;1.83;;;;;;;-141.28;100.00;52285.72;5108181;28;20223;-77
2022/09/18 09:59:39;;;;;;;2.40;1.87;;;;;;;-141.28;100.00;52140.38;5099356;28;20227;-75
2022/09/18 10:02:26;;;;;;;2.33;2.00;;;;;;;-141.28;100.00;52160.03;5109136;28;20536;-76
2022/09/18 10:05:00;;;;;;;3.20;2.00;;;;;;;-141.28;100.00;52146.28;5099579;28;20214;-76
2022/09/18 10:07:35;;;;;;;1.90;1.70;;;;;;;-141.28;100.00;52163.94;5071412;28;20232;-74
2022/09/18 10:10:10;;;;;;;7.00;2.57;;;;;;;-141.28;100.00;52266.06;5070291;28;20627;-74
2022/09/18 10:12:46;;;;;;;3.30;2.40;;;;;;;-141.28;100.00;52171.81;5086162;28;20210;-75
2022/09/18 10:15:20;;;;;;;2.77;2.43;;;;;;;-141.28;100.00;52093.25;5094433;28;20588;-74
2022/09/18 10:17:50;;;;;;;4.30;2.57;;;;;;;-141.28;100.00;52132.53;5103700;28;20194;-76
2022/09/18 10:20:26;;;;;;;6.43;3.40;;;;;;;-141.28;100.00;52140.38;5096183;28;20231;-77
2022/09/18 10:22:56;;;;;;;2.87;2.47;;;;;;;-141.28;100.00;52116.81;5106141;28;20203;-75
2022/09/18 10:25:31;;;;;;;5.07;3.30;;;;;;;-141.28;100.00;52160.03;5113814;28;20724;-76
2022/09/18 10:27:58;;;;;;;5.13;2.80;;;;;;;-141.28;100.00;52120.75;5113610;28;20222;-74
2022/09/18 10:30:27;;;;;;;3.70;2.70;;;;;;;-141.28;100.00;52032.38;5081399;28;20203;-75
2022/09/18 10:32:54;;;;;;;3.40;3.10;;;;;;;-141.28;100.00;51971.50;5080983;28;20287;-76
2022/09/18 10:35:44;;;;;;;3.10;2.90;;;;;;;-141.28;100.00;51971.50;5095147;28;20570;-77
2022/09/18 10:38:36;;;;;;;8.40;2.93;;;;;;;-141.28;100.00;51949.91;5090148;28;20191;-75
2022/09/18 10:41:28;;;;;;;2.83;2.63;;;;;;;-141.28;100.00;52004.88;5081267;28;20689;-76
2022/09/18 10:43:59;;;;;;;2.77;2.57;;;;;;;-141.28;100.00;51963.63;5083595;28;20622;-76
2022/09/18 10:49:19;;;;;;;6.40;3.20;;;;;;;-141.28;100.00;51961.69;5079111;28;20228;-75
2022/09/18 10:51:47;;;;;;;2.87;2.67;;;;;;;-141.28;100.00;51959.72;5074327;28;20196;-79
2022/09/18 10:54:21;;;;;;;3.40;3.10;;;;;;;-141.28;100.00;51991.13;5074277;28;20288;-75
2022/09/18 10:56:49;;;;;;;4.10;3.30;;;;;;;-141.28;100.00;51949.91;5073606;28;20212;-76
2022/09/18 10:59:34;;;;;;;5.33;3.60;;;;;;;-141.28;100.00;51912.59;5074141;28;20200;-74
2022/09/18 11:02:04;;;;;;;5.03;3.50;;;;;;;-141.28;100.00;51781.03;5073892;28;20624;-75
2022/09/18 11:04:33;;;;;;;3.70;2.87;;;;;;;-141.28;100.00;51755.50;5093894;28;20191;-74
2022/09/18 11:07:06;;;;;;;3.60;3.10;;;;;;;-141.28;100.00;51796.72;5079656;28;20227;-76
2022/09/18 11:09:37;;;;;;;3.43;3.10;;;;;;;-141.28;100.00;51865.47;5102612;28;20207;-74
2022/09/18 11:12:04;;;;;;;3.77;3.07;;;;;;;-141.28;100.00;51806.53;5113608;28;20198;-74
2022/09/18 11:14:39;;;;;;;4.27;3.17;;;;;;;-141.28;100.00;51782.97;5103725;28;20731;-77
2022/09/18 11:17:15;;;;;;;4.10;2.87;;;;;;;-141.28;100.00;51649.47;5075256;28;20199;-76
2022/09/18 11:19:51;;;;;;;3.23;2.93;;;;;;;-141.28;100.00;51578.78;5073801;28;20227;-74
2022/09/18 11:22:41;;;;;;;3.57;2.67;;;;;;;-141.28;100.00;51425.63;5074060;28;20685;-74
2022/09/18 11:25:20;;;;;;;6.27;2.97;;;;;;;-141.28;100.00;51394.22;5094882;28;20697;-75
2022/09/18 11:27:49;;;;;;;3.63;2.60;;;;;;;-141.28;100.00;51280.34;5100117;28;20191;-76
2022/09/18 11:30:22;;;;;;;4.07;2.30;;;;;;;-141.28;100.00;51280.34;5100053;28;20193;-75